Startpagina
METAR-TAF:

METAR-TAF

Vliegvelden :

Erie, Colorado, Verenigde Staten

breedte: 40-00-37N, lengte: 105-02-53W, hoogte: 1564 m

Actueel weer

Dit bericht is 18 minuten geleden gemaakt, om 02:12 UTC
Wind 14 kt uit het oostzuidoosten met uitschieters tot 19 kt
Temperatuur 22°C
Vochtigheid 53%
Druk 1025 hPa
Zicht: 16.1 km
Verspreide wolken op 12000 ft

METAR: KEIK 180212Z AUTO 12014G19KT 10SM SCT120 22/12 A3026 RMK AO2 LTG DSNT SE T02200121

Tijdstip: 20:30 (02:30 UTC)


TAF: ontbreekt

Waarnemingen en weersverwachtingen van meer dan 4000 vliegvelden (METAR en TAF).

De beschikbare stations zijn de gele en rode punten op de kaart.

Ga met uw muis naar het station om de naam te zien.

Klik dan om waarnemingen en weersverwachtingen te zien.

kaart wijzigen: klik op de groene knoppen met een zwart kruis om in te zoomen, op de groene knop met een streepje om uit te zoomen of op de groene pijlen voor aangrenzende kaarten.


METAR-TAF: